»·PEaware :: SWA342 KBUR-KSMF

SWA342 :: KBUR-KSMF

FLIGHT INFORMATION

Flight Status: Arrived
Operator:
Southwest Airlines
More flights by this operator :: More flights under this callsign
Pilot: Nick N. (361)
Aircraft: BOEING 737-800
(B738)
More flights by this aircraft type
Origin: KBUR Bob Hope-Burbank
United States
Destination: KSMF Sacramento Intl
United States
More flights between these airports :: More routes between these airports
Route: OROSZ2 CSTRO NURAY SUUTR2
File this flight plan on PilotEdge
Remarks:
Altitude:
(Current/Filed)
34,000ft
Speed:
(Current/Filed)
435kts
Departed: 19-Mar-19 07:44 AM
Arrived: 19-Mar-19 08:39 AM
Distance/Time
Traveled:
312nm/0:55
Distance/Time
To Go:
Arrived

Flight Plot

Page will automatically refresh every two minutes.

Flight plan parsing failed; only flown route is shown


Map Options




Map Legend


Flown Route
Filed Route
Departure Airport
Arrival Airport
Navaid (VOR, NDB)
Fix

Horizontal Profiles

Position Reports

Time Latitude Longitude Heading Altitude Ground
Speed
19-Mar-19 06:57 34.196622 -118.349327 180 785ft 0kts
19-Mar-19 06:58 34.196622 -118.349327 180 785ft 0kts
19-Mar-19 06:59 34.196622 -118.349327 180 785ft 0kts
19-Mar-19 07:00 34.196622 -118.349327 180 785ft 0kts
19-Mar-19 07:01 34.196622 -118.349327 180 785ft 0kts
19-Mar-19 07:02 34.196622 -118.349327 180 785ft 0kts
19-Mar-19 07:03 34.196622 -118.349327 180 785ft 0kts
19-Mar-19 07:04 34.196622 -118.349327 180 785ft 0kts
19-Mar-19 07:05 34.196622 -118.349327 180 785ft 0kts
19-Mar-19 07:06 34.196622 -118.349327 180 785ft 0kts
19-Mar-19 07:07 34.196622 -118.349327 180 785ft 0kts
19-Mar-19 07:08 34.196622 -118.349327 180 785ft 0kts
19-Mar-19 07:09 34.196622 -118.349327 180 785ft 0kts
19-Mar-19 07:10 34.196622 -118.349327 180 785ft 0kts
19-Mar-19 07:11 34.196622 -118.349327 180 785ft 0kts
19-Mar-19 07:12 34.196622 -118.349327 180 785ft 0kts
19-Mar-19 07:13 34.196622 -118.349327 180 785ft 0kts
19-Mar-19 07:14 34.196622 -118.349327 180 785ft 0kts
19-Mar-19 07:15 34.196622 -118.349327 180 785ft 0kts
19-Mar-19 07:16 34.196622 -118.349327 180 785ft 0kts
19-Mar-19 07:17 34.196622 -118.349327 180 785ft 0kts
19-Mar-19 07:18 34.196622 -118.349327 180 785ft 0kts
19-Mar-19 07:19 34.196622 -118.349327 180 785ft 0kts
19-Mar-19 07:20 34.196622 -118.349327 180 785ft 0kts
19-Mar-19 07:21 34.196622 -118.349327 180 785ft 0kts
19-Mar-19 07:22 34.196622 -118.349327 180 785ft 0kts
19-Mar-19 07:23 34.196622 -118.349327 180 785ft 0kts
19-Mar-19 07:24 34.196622 -118.349327 180 785ft 0kts
19-Mar-19 07:25 34.196622 -118.349327 180 785ft 0kts
19-Mar-19 07:26 34.196622 -118.349327 180 784ft 0kts
19-Mar-19 07:27 34.196622 -118.349327 180 784ft 0kts
19-Mar-19 07:28 34.196622 -118.349327 180 784ft 0kts
19-Mar-19 07:29 34.196622 -118.349327 180 784ft 0kts
19-Mar-19 07:30 34.196623 -118.349327 180 785ft 0kts
19-Mar-19 07:31 34.197116 -118.349313 180 785ft 2kts
19-Mar-19 07:32 34.197154 -118.349671 270 784ft 1kts
19-Mar-19 07:33 34.197154 -118.349691 270 784ft 0kts
19-Mar-19 07:34 34.197154 -118.349691 270 784ft 0kts
19-Mar-19 07:35 34.197145 -118.350235 268 784ft 5kts
19-Mar-19 07:36 34.197183 -118.352772 271 784ft 7kts
19-Mar-19 07:37 34.197851 -118.355034 327 784ft 10kts
19-Mar-19 07:38 34.200857 -118.355927 347 784ft 11kts
19-Mar-19 07:39 34.204117 -118.356834 347 785ft 12kts
19-Mar-19 07:40 34.207617 -118.357808 346 785ft 12kts
19-Mar-19 07:42 34.210928 -118.358706 347 784ft 8kts
19-Mar-19 07:43 34.211782 -118.359384 301 785ft 6kts
19-Mar-19 07:44 34.204636 -118.358325 167 785ft 126kts
19-Mar-19 07:45 34.160925 -118.360344 223 2887ft 177kts
19-Mar-19 07:46 34.126473 -118.409567 275 4165ft 239kts
19-Mar-19 07:47 34.182530 -118.450498 352 6953ft 272kts
19-Mar-19 07:48 34.260989 -118.465041 352 9820ft 301kts
19-Mar-19 07:49 34.350181 -118.480027 352 12124ft 343kts
19-Mar-19 07:50 34.447170 -118.498586 352 14010ft 359kts
19-Mar-19 07:51 34.545588 -118.517171 352 14156ft 363kts
19-Mar-19 07:52 34.632740 -118.564008 324 16736ft 373kts
19-Mar-19 07:53 34.719630 -118.634824 323 19154ft 387kts
19-Mar-19 07:54 34.806801 -118.706023 322 21335ft 400kts
19-Mar-19 07:55 34.899635 -118.782045 321 23093ft 415kts
19-Mar-19 07:56 34.993644 -118.859212 323 23091ft 408kts
19-Mar-19 07:57 35.087746 -118.936666 323 23036ft 409kts
19-Mar-19 07:58 35.180041 -119.012888 323 22992ft 410kts
19-Mar-19 07:59 35.274047 -119.090700 323 22989ft 412kts
19-Mar-19 07:59 35.352159 -119.155541 323 22990ft 410kts
19-Mar-19 08:01 35.466429 -119.242766 337 25014ft 423kts
19-Mar-19 08:02 35.580015 -119.288175 340 26785ft 434kts
19-Mar-19 08:02 35.675424 -119.326520 340 28088ft 443kts
19-Mar-19 08:03 35.792542 -119.373783 340 29639ft 451kts
19-Mar-19 08:05 35.930652 -119.429605 339 31291ft 460kts
19-Mar-19 08:05 36.029497 -119.469696 340 32807ft 455kts
19-Mar-19 08:06 36.140942 -119.514931 339 33980ft 459kts
19-Mar-19 08:08 36.272649 -119.568794 339 33989ft 467kts
19-Mar-19 08:08 36.367345 -119.607543 339 33988ft 467kts
19-Mar-19 08:09 36.479129 -119.653409 338 33987ft 467kts
19-Mar-19 08:10 36.589915 -119.699111 331 34006ft 464kts
19-Mar-19 08:11 36.688436 -119.773866 324 33996ft 463kts
19-Mar-19 08:12 36.786123 -119.850685 324 34001ft 462kts
19-Mar-19 08:13 36.885495 -119.928788 324 33247ft 461kts
19-Mar-19 08:14 36.991071 -120.012126 324 32196ft 463kts
19-Mar-19 08:15 37.102013 -120.100018 324 31052ft 464kts
19-Mar-19 08:16 37.202680 -120.180078 324 29924ft 467kts
19-Mar-19 08:17 37.309700 -120.265455 324 28911ft 470kts
19-Mar-19 08:18 37.419444 -120.353311 325 25932ft 466kts
19-Mar-19 08:19 37.520026 -120.443842 318 23853ft 414kts
19-Mar-19 08:20 37.613272 -120.537796 319 21358ft 408kts
19-Mar-19 08:21 37.704835 -120.629557 319 19081ft 393kts
19-Mar-19 08:22 37.785011 -120.710305 319 17171ft 379kts
19-Mar-19 08:23 37.874448 -120.800818 319 15431ft 370kts
19-Mar-19 08:24 37.955589 -120.883172 319 14119ft 364kts
19-Mar-19 08:25 38.034022 -120.963008 319 12690ft 357kts
19-Mar-19 08:26 38.103690 -121.046321 307 11987ft 320kts
19-Mar-19 08:27 38.159397 -121.129524 309 10860ft 304kts
19-Mar-19 08:28 38.214261 -121.210659 310 9517ft 298kts
19-Mar-19 08:29 38.269036 -121.287581 314 8104ft 286kts
19-Mar-19 08:30 38.321148 -121.360857 315 6628ft 271kts
19-Mar-19 08:31 38.366339 -121.435368 322 5472ft 257kts
19-Mar-19 08:32 38.418011 -121.497235 313 4250ft 252kts
19-Mar-19 08:33 38.464541 -121.563341 313 3400ft 243kts
19-Mar-19 08:34 38.514245 -121.602053 353 3020ft 204kts
19-Mar-19 08:35 38.571100 -121.603164 1 2029ft 203kts
19-Mar-19 08:36 38.621324 -121.602390 1 1297ft 159kts
19-Mar-19 08:37 38.664671 -121.601920 0 452ft 151kts
19-Mar-19 08:38 38.699724 -121.601247 1 32ft 36kts
19-Mar-19 08:39 38.701282 -121.599542 91 33ft 0kts
19-Mar-19 08:40 38.699925 -121.598595 181 32ft 12kts
19-Mar-19 08:41 38.697028 -121.598117 100 32ft 7kts
19-Mar-19 08:42 38.696891 -121.594658 149 32ft 2kts
19-Mar-19 08:43 38.696327 -121.594593 180 32ft 0kts
19-Mar-19 08:44 38.696298 -121.594593 180 32ft 0kts
19-Mar-19 08:45 38.696298 -121.594593 180 32ft 0kts

Navigation Log

Ident Type
Flight plan parsing failed, navigation log unavailable